sensor_id;sensor_type;location;lat;lon;timestamp;P1;durP1;ratioP1;P2;durP2;ratioP2
14686;SDS011;7431;49.440;11.084;2023-03-14T00:02:18;1.27;;;0.90;;
14686;SDS011;7431;49.440;11.084;2023-03-14T00:04:44;0.90;;;0.90;;
14686;SDS011;7431;49.440;11.084;2023-03-14T00:07:10;1.20;;;1.10;;
14686;SDS011;7431;49.440;11.084;2023-03-14T00:09:37;0.90;;;0.90;;
14686;SDS011;7431;49.440;11.084;2023-03-14T00:12:02;0.90;;;0.80;;
14686;SDS011;7431;49.440;11.084;2023-03-14T00:14:29;0.80;;;0.80;;
14686;SDS011;7431;49.440;11.084;2023-03-14T00:16:56;1.07;;;1.00;;
14686;SDS011;7431;49.440;11.084;2023-03-14T00:19:21;2.90;;;1.00;;
14686;SDS011;7431;49.440;11.084;2023-03-14T00:21:47;1.13;;;1.00;;
14686;SDS011;7431;49.440;11.084;2023-03-14T00:24:13;1.30;;;1.00;;
14686;SDS011;7431;49.440;11.084;2023-03-14T00:26:38;1.90;;;1.00;;
14686;SDS011;7431;49.440;11.084;2023-03-14T00:29:04;1.93;;;1.10;;
14686;SDS011;7431;49.440;11.084;2023-03-14T00:31:29;0.80;;;0.80;;
14686;SDS011;7431;49.440;11.084;2023-03-14T00:33:56;1.73;;;0.90;;
14686;SDS011;7431;49.440;11.084;2023-03-14T00:36:22;0.80;;;0.80;;
14686;SDS011;7431;49.440;11.084;2023-03-14T00:38:49;0.90;;;0.70;;
14686;SDS011;7431;49.440;11.084;2023-03-14T00:41:17;1.20;;;1.00;;
14686;SDS011;7431;49.440;11.084;2023-03-14T00:43:45;0.90;;;0.90;;
14686;SDS011;7431;49.440;11.084;2023-03-14T00:46:11;1.70;;;1.00;;
14686;SDS011;7431;49.440;11.084;2023-03-14T00:48:37;1.47;;;0.90;;
14686;SDS011;7431;49.440;11.084;2023-03-14T00:51:04;0.80;;;0.80;;
14686;SDS011;7431;49.440;11.084;2023-03-14T00:53:34;0.70;;;0.70;;
14686;SDS011;7431;49.440;11.084;2023-03-14T00:56:05;1.03;;;0.90;;
14686;SDS011;7431;49.440;11.084;2023-03-14T00:58:33;0.83;;;0.77;;
14686;SDS011;7431;49.440;11.084;2023-03-14T01:00:58;0.97;;;0.90;;
14686;SDS011;7431;49.440;11.084;2023-03-14T01:03:24;0.87;;;0.83;;
14686;SDS011;7431;49.440;11.084;2023-03-14T01:05:50;0.60;;;0.60;;
14686;SDS011;7431;49.440;11.084;2023-03-14T01:08:15;0.67;;;0.67;;
14686;SDS011;7431;49.440;11.084;2023-03-14T01:10:41;1.57;;;1.30;;
14686;SDS011;7431;49.440;11.084;2023-03-14T01:13:08;1.37;;;0.60;;
14686;SDS011;7431;49.440;11.084;2023-03-14T01:15:34;0.57;;;0.47;;
14686;SDS011;7431;49.440;11.084;2023-03-14T01:18:00;0.43;;;0.43;;
14686;SDS011;7431;49.440;11.084;2023-03-14T01:20:26;0.57;;;0.57;;
14686;SDS011;7431;49.440;11.084;2023-03-14T01:22:52;0.40;;;0.40;;
14686;SDS011;7431;49.440;11.084;2023-03-14T01:25:17;0.43;;;0.43;;
14686;SDS011;7431;49.440;11.084;2023-03-14T01:27:43;1.03;;;0.50;;
14686;SDS011;7431;49.440;11.084;2023-03-14T01:30:10;1.43;;;0.63;;
14686;SDS011;7431;49.440;11.084;2023-03-14T01:32:36;0.50;;;0.50;;
14686;SDS011;7431;49.440;11.084;2023-03-14T01:35:03;0.67;;;0.67;;
14686;SDS011;7431;49.440;11.084;2023-03-14T01:37:29;1.50;;;0.90;;
14686;SDS011;7431;49.440;11.084;2023-03-14T01:39:54;0.90;;;0.90;;
14686;SDS011;7431;49.440;11.084;2023-03-14T01:42:20;1.23;;;1.13;;
14686;SDS011;7431;49.440;11.084;2023-03-14T01:44:55;1.47;;;1.00;;
14686;SDS011;7431;49.440;11.084;2023-03-14T01:47:23;1.10;;;1.00;;
14686;SDS011;7431;49.440;11.084;2023-03-14T01:49:50;1.20;;;1.00;;
14686;SDS011;7431;49.440;11.084;2023-03-14T01:52:23;0.97;;;0.83;;
14686;SDS011;7431;49.440;11.084;2023-03-14T01:54:55;1.07;;;1.07;;
14686;SDS011;7431;49.440;11.084;2023-03-14T01:59:54;1.23;;;1.13;;
14686;SDS011;7431;49.440;11.084;2023-03-14T02:02:21;1.00;;;1.00;;
14686;SDS011;7431;49.440;11.084;2023-03-14T02:04:48;1.40;;;1.10;;
14686;SDS011;7431;49.440;11.084;2023-03-14T02:10:02;1.30;;;1.13;;
14686;SDS011;7431;49.440;11.084;2023-03-14T02:12:28;1.30;;;1.20;;
14686;SDS011;7431;49.440;11.084;2023-03-14T02:14:55;1.70;;;1.10;;
14686;SDS011;7431;49.440;11.084;2023-03-14T02:17:20;1.73;;;1.30;;
14686;SDS011;7431;49.440;11.084;2023-03-14T02:22:35;1.10;;;1.00;;
14686;SDS011;7431;49.440;11.084;2023-03-14T02:25:08;0.73;;;0.73;;
14686;SDS011;7431;49.440;11.084;2023-03-14T02:27:51;1.73;;;0.90;;
14686;SDS011;7431;49.440;11.084;2023-03-14T02:30:21;1.60;;;1.10;;
14686;SDS011;7431;49.440;11.084;2023-03-14T02:32:49;0.80;;;0.70;;
14686;SDS011;7431;49.440;11.084;2023-03-14T02:35:22;1.00;;;0.90;;
14686;SDS011;7431;49.440;11.084;2023-03-14T02:40:18;0.73;;;0.60;;
14686;SDS011;7431;49.440;11.084;2023-03-14T02:42:44;0.40;;;0.40;;
14686;SDS011;7431;49.440;11.084;2023-03-14T02:47:36;0.50;;;0.50;;
14686;SDS011;7431;49.440;11.084;2023-03-14T02:50:10;1.13;;;0.70;;
14686;SDS011;7431;49.440;11.084;2023-03-14T02:52:39;0.40;;;0.40;;
14686;SDS011;7431;49.440;11.084;2023-03-14T02:55:05;0.50;;;0.50;;
14686;SDS011;7431;49.440;11.084;2023-03-14T02:57:31;1.33;;;0.70;;
14686;SDS011;7431;49.440;11.084;2023-03-14T03:00:00;1.10;;;0.60;;
14686;SDS011;7431;49.440;11.084;2023-03-14T03:02:28;0.60;;;0.60;;
14686;SDS011;7431;49.440;11.084;2023-03-14T03:04:54;0.70;;;0.70;;
14686;SDS011;7431;49.440;11.084;2023-03-14T03:07:20;1.10;;;1.00;;
14686;SDS011;7431;49.440;11.084;2023-03-14T03:09:45;1.37;;;0.70;;
14686;SDS011;7431;49.440;11.084;2023-03-14T03:12:11;1.03;;;0.83;;
14686;SDS011;7431;49.440;11.084;2023-03-14T03:14:37;1.07;;;0.67;;
14686;SDS011;7431;49.440;11.084;2023-03-14T03:17:03;0.70;;;0.70;;
14686;SDS011;7431;49.440;11.084;2023-03-14T03:19:30;1.07;;;0.83;;
14686;SDS011;7431;49.440;11.084;2023-03-14T03:21:56;1.03;;;0.60;;
14686;SDS011;7431;49.440;11.084;2023-03-14T03:24:23;0.50;;;0.50;;
14686;SDS011;7431;49.440;11.084;2023-03-14T03:26:49;0.30;;;0.30;;
14686;SDS011;7431;49.440;11.084;2023-03-14T03:29:14;0.57;;;0.57;;
14686;SDS011;7431;49.440;11.084;2023-03-14T03:31:40;1.10;;;0.77;;
14686;SDS011;7431;49.440;11.084;2023-03-14T03:34:06;1.43;;;1.33;;
14686;SDS011;7431;49.440;11.084;2023-03-14T03:36:32;1.97;;;0.50;;
14686;SDS011;7431;49.440;11.084;2023-03-14T03:38:58;0.60;;;0.60;;
14686;SDS011;7431;49.440;11.084;2023-03-14T03:41:23;0.50;;;0.43;;
14686;SDS011;7431;49.440;11.084;2023-03-14T03:43:49;0.50;;;0.50;;
14686;SDS011;7431;49.440;11.084;2023-03-14T03:46:15;0.50;;;0.50;;
14686;SDS011;7431;49.440;11.084;2023-03-14T03:48:40;0.83;;;0.70;;
14686;SDS011;7431;49.440;11.084;2023-03-14T03:51:06;0.67;;;0.67;;
14686;SDS011;7431;49.440;11.084;2023-03-14T03:53:32;0.60;;;0.60;;
14686;SDS011;7431;49.440;11.084;2023-03-14T03:55:57;0.43;;;0.43;;
14686;SDS011;7431;49.440;11.084;2023-03-14T03:58:23;0.47;;;0.47;;
14686;SDS011;7431;49.440;11.084;2023-03-14T04:00:48;1.37;;;0.70;;
14686;SDS011;7431;49.440;11.084;2023-03-14T04:03:14;0.50;;;0.50;;
14686;SDS011;7431;49.440;11.084;2023-03-14T04:05:40;0.40;;;0.40;;
14686;SDS011;7431;49.440;11.084;2023-03-14T04:08:05;0.90;;;0.67;;
14686;SDS011;7431;49.440;11.084;2023-03-14T04:10:33;0.97;;;0.70;;
14686;SDS011;7431;49.440;11.084;2023-03-14T04:12:59;0.67;;;0.67;;
14686;SDS011;7431;49.440;11.084;2023-03-14T04:15:25;1.23;;;0.70;;
14686;SDS011;7431;49.440;11.084;2023-03-14T04:17:50;0.50;;;0.50;;
14686;SDS011;7431;49.440;11.084;2023-03-14T04:20:16;0.57;;;0.53;;
14686;SDS011;7431;49.440;11.084;2023-03-14T04:22:41;0.63;;;0.63;;
14686;SDS011;7431;49.440;11.084;2023-03-14T04:25:07;0.47;;;0.47;;
14686;SDS011;7431;49.440;11.084;2023-03-14T04:27:33;0.77;;;0.60;;
14686;SDS011;7431;49.440;11.084;2023-03-14T04:29:58;1.53;;;0.80;;
14686;SDS011;7431;49.440;11.084;2023-03-14T04:32:24;1.07;;;0.53;;
14686;SDS011;7431;49.440;11.084;2023-03-14T04:34:50;0.70;;;0.50;;
14686;SDS011;7431;49.440;11.084;2023-03-14T04:37:15;0.70;;;0.50;;
14686;SDS011;7431;49.440;11.084;2023-03-14T04:39:41;0.90;;;0.60;;
14686;SDS011;7431;49.440;11.084;2023-03-14T04:42:06;0.83;;;0.70;;
14686;SDS011;7431;49.440;11.084;2023-03-14T04:44:32;0.77;;;0.70;;
14686;SDS011;7431;49.440;11.084;2023-03-14T04:46:58;0.60;;;0.60;;
14686;SDS011;7431;49.440;11.084;2023-03-14T04:49:23;0.53;;;0.53;;
14686;SDS011;7431;49.440;11.084;2023-03-14T04:51:49;0.80;;;0.80;;
14686;SDS011;7431;49.440;11.084;2023-03-14T04:54:18;0.73;;;0.60;;
14686;SDS011;7431;49.440;11.084;2023-03-14T04:56:43;0.67;;;0.67;;
14686;SDS011;7431;49.440;11.084;2023-03-14T04:59:09;0.70;;;0.63;;
14686;SDS011;7431;49.440;11.084;2023-03-14T05:01:35;1.27;;;0.70;;
14686;SDS011;7431;49.440;11.084;2023-03-14T05:04:01;0.60;;;0.60;;
14686;SDS011;7431;49.440;11.084;2023-03-14T05:06:26;0.80;;;0.80;;
14686;SDS011;7431;49.440;11.084;2023-03-14T05:08:52;0.73;;;0.67;;
14686;SDS011;7431;49.440;11.084;2023-03-14T05:11:17;0.77;;;0.77;;
14686;SDS011;7431;49.440;11.084;2023-03-14T05:13:43;0.90;;;0.90;;
14686;SDS011;7431;49.440;11.084;2023-03-14T05:16:09;0.87;;;0.80;;
14686;SDS011;7431;49.440;11.084;2023-03-14T05:18:35;0.77;;;0.77;;
14686;SDS011;7431;49.440;11.084;2023-03-14T05:21:02;0.80;;;0.80;;
14686;SDS011;7431;49.440;11.084;2023-03-14T05:23:28;0.60;;;0.60;;
14686;SDS011;7431;49.440;11.084;2023-03-14T05:25:54;2.33;;;1.00;;
14686;SDS011;7431;49.440;11.084;2023-03-14T05:28:20;1.13;;;0.70;;
14686;SDS011;7431;49.440;11.084;2023-03-14T05:30:45;1.67;;;0.67;;
14686;SDS011;7431;49.440;11.084;2023-03-14T05:33:11;0.70;;;0.70;;
14686;SDS011;7431;49.440;11.084;2023-03-14T05:35:37;1.17;;;0.90;;
14686;SDS011;7431;49.440;11.084;2023-03-14T05:38:02;1.07;;;1.00;;
14686;SDS011;7431;49.440;11.084;2023-03-14T05:40:28;0.70;;;0.70;;
14686;SDS011;7431;49.440;11.084;2023-03-14T05:42:54;1.03;;;1.00;;
14686;SDS011;7431;49.440;11.084;2023-03-14T05:45:19;1.77;;;1.10;;
14686;SDS011;7431;49.440;11.084;2023-03-14T05:47:45;0.70;;;0.70;;
14686;SDS011;7431;49.440;11.084;2023-03-14T05:50:10;1.13;;;0.90;;
14686;SDS011;7431;49.440;11.084;2023-03-14T05:52:36;1.10;;;1.00;;
14686;SDS011;7431;49.440;11.084;2023-03-14T05:55:02;1.47;;;0.77;;
14686;SDS011;7431;49.440;11.084;2023-03-14T05:57:28;1.20;;;0.80;;
14686;SDS011;7431;49.440;11.084;2023-03-14T05:59:54;1.43;;;1.10;;
14686;SDS011;7431;49.440;11.084;2023-03-14T06:02:19;0.93;;;0.90;;
14686;SDS011;7431;49.440;11.084;2023-03-14T06:04:45;1.97;;;1.00;;
14686;SDS011;7431;49.440;11.084;2023-03-14T06:07:10;1.23;;;0.90;;
14686;SDS011;7431;49.440;11.084;2023-03-14T06:09:36;1.40;;;1.10;;
14686;SDS011;7431;49.440;11.084;2023-03-14T06:12:01;0.97;;;0.90;;
14686;SDS011;7431;49.440;11.084;2023-03-14T06:14:28;1.00;;;0.90;;
14686;SDS011;7431;49.440;11.084;2023-03-14T06:16:53;1.90;;;0.97;;
14686;SDS011;7431;49.440;11.084;2023-03-14T06:19:19;1.33;;;1.20;;
14686;SDS011;7431;49.440;11.084;2023-03-14T06:21:45;2.20;;;1.40;;
14686;SDS011;7431;49.440;11.084;2023-03-14T06:24:10;1.33;;;1.10;;
14686;SDS011;7431;49.440;11.084;2023-03-14T06:26:36;1.20;;;1.10;;
14686;SDS011;7431;49.440;11.084;2023-03-14T06:29:01;1.20;;;1.10;;
14686;SDS011;7431;49.440;11.084;2023-03-14T06:31:29;1.20;;;1.10;;
14686;SDS011;7431;49.440;11.084;2023-03-14T06:33:55;1.50;;;1.40;;
14686;SDS011;7431;49.440;11.084;2023-03-14T06:36:21;1.30;;;1.20;;
14686;SDS011;7431;49.440;11.084;2023-03-14T06:38:46;2.00;;;0.80;;
14686;SDS011;7431;49.440;11.084;2023-03-14T06:41:12;2.03;;;1.10;;
14686;SDS011;7431;49.440;11.084;2023-03-14T06:43:38;1.80;;;1.20;;
14686;SDS011;7431;49.440;11.084;2023-03-14T06:46:03;1.20;;;1.10;;
14686;SDS011;7431;49.440;11.084;2023-03-14T06:48:29;3.17;;;1.10;;
14686;SDS011;7431;49.440;11.084;2023-03-14T06:50:55;1.10;;;1.00;;
14686;SDS011;7431;49.440;11.084;2023-03-14T06:53:20;1.00;;;1.00;;
14686;SDS011;7431;49.440;11.084;2023-03-14T06:55:46;3.27;;;1.33;;
14686;SDS011;7431;49.440;11.084;2023-03-14T06:58:12;1.37;;;1.27;;
14686;SDS011;7431;49.440;11.084;2023-03-14T07:00:37;2.07;;;1.40;;
14686;SDS011;7431;49.440;11.084;2023-03-14T07:03:03;2.00;;;1.30;;
14686;SDS011;7431;49.440;11.084;2023-03-14T07:05:28;2.00;;;1.40;;
14686;SDS011;7431;49.440;11.084;2023-03-14T07:07:54;1.43;;;1.10;;
14686;SDS011;7431;49.440;11.084;2023-03-14T07:10:19;1.67;;;1.27;;
14686;SDS011;7431;49.440;11.084;2023-03-14T07:12:45;1.73;;;1.20;;
14686;SDS011;7431;49.440;11.084;2023-03-14T07:15:11;2.07;;;1.40;;
14686;SDS011;7431;49.440;11.084;2023-03-14T07:17:36;2.37;;;1.30;;
14686;SDS011;7431;49.440;11.084;2023-03-14T07:20:02;1.50;;;1.37;;
14686;SDS011;7431;49.440;11.084;2023-03-14T07:22:29;1.70;;;1.53;;
14686;SDS011;7431;49.440;11.084;2023-03-14T07:24:55;1.47;;;1.20;;
14686;SDS011;7431;49.440;11.084;2023-03-14T07:27:21;1.13;;;1.03;;
14686;SDS011;7431;49.440;11.084;2023-03-14T07:29:46;1.60;;;1.43;;
14686;SDS011;7431;49.440;11.084;2023-03-14T07:32:12;4.47;;;1.60;;
14686;SDS011;7431;49.440;11.084;2023-03-14T07:34:40;1.77;;;1.63;;
14686;SDS011;7431;49.440;11.084;2023-03-14T07:37:06;1.40;;;1.30;;
14686;SDS011;7431;49.440;11.084;2023-03-14T07:39:32;1.57;;;1.47;;
14686;SDS011;7431;49.440;11.084;2023-03-14T07:41:57;3.47;;;1.40;;
14686;SDS011;7431;49.440;11.084;2023-03-14T07:44:23;1.43;;;1.23;;
14686;SDS011;7431;49.440;11.084;2023-03-14T07:46:48;2.47;;;1.23;;
14686;SDS011;7431;49.440;11.084;2023-03-14T07:49:14;1.73;;;1.47;;
14686;SDS011;7431;49.440;11.084;2023-03-14T07:51:40;2.13;;;1.10;;
14686;SDS011;7431;49.440;11.084;2023-03-14T07:54:05;1.47;;;1.27;;
14686;SDS011;7431;49.440;11.084;2023-03-14T07:56:31;1.87;;;1.20;;
14686;SDS011;7431;49.440;11.084;2023-03-14T07:58:57;1.60;;;1.33;;
14686;SDS011;7431;49.440;11.084;2023-03-14T08:01:23;2.33;;;1.40;;
14686;SDS011;7431;49.440;11.084;2023-03-14T08:03:48;1.30;;;1.20;;
14686;SDS011;7431;49.440;11.084;2023-03-14T08:06:14;2.33;;;1.50;;
14686;SDS011;7431;49.440;11.084;2023-03-14T08:08:39;1.50;;;1.13;;
14686;SDS011;7431;49.440;11.084;2023-03-14T08:11:05;1.73;;;1.10;;
14686;SDS011;7431;49.440;11.084;2023-03-14T08:13:33;1.60;;;1.27;;
14686;SDS011;7431;49.440;11.084;2023-03-14T08:16:01;1.80;;;1.23;;
14686;SDS011;7431;49.440;11.084;2023-03-14T08:18:26;1.37;;;1.13;;
14686;SDS011;7431;49.440;11.084;2023-03-14T08:20:52;3.20;;;1.27;;
14686;SDS011;7431;49.440;11.084;2023-03-14T08:23:17;1.83;;;1.27;;
14686;SDS011;7431;49.440;11.084;2023-03-14T08:25:43;1.77;;;1.33;;
14686;SDS011;7431;49.440;11.084;2023-03-14T08:28:08;1.63;;;1.40;;
14686;SDS011;7431;49.440;11.084;2023-03-14T08:30:34;2.23;;;1.30;;
14686;SDS011;7431;49.440;11.084;2023-03-14T08:33:00;1.57;;;1.10;;
14686;SDS011;7431;49.440;11.084;2023-03-14T08:35:26;1.67;;;1.27;;
14686;SDS011;7431;49.440;11.084;2023-03-14T08:37:53;2.77;;;1.10;;
14686;SDS011;7431;49.440;11.084;2023-03-14T08:40:19;2.50;;;1.20;;
14686;SDS011;7431;49.440;11.084;2023-03-14T08:42:45;1.90;;;1.10;;
14686;SDS011;7431;49.440;11.084;2023-03-14T08:45:12;2.33;;;1.00;;
14686;SDS011;7431;49.440;11.084;2023-03-14T08:47:38;1.97;;;1.00;;
14686;SDS011;7431;49.440;11.084;2023-03-14T08:50:04;2.33;;;1.13;;
14686;SDS011;7431;49.440;11.084;2023-03-14T08:52:30;3.07;;;1.20;;
14686;SDS011;7431;49.440;11.084;2023-03-14T08:54:57;2.20;;;1.40;;
14686;SDS011;7431;49.440;11.084;2023-03-14T08:57:23;2.03;;;1.05;;
14686;SDS011;7431;49.440;11.084;2023-03-14T08:59:52;2.77;;;1.13;;
14686;SDS011;7431;49.440;11.084;2023-03-14T09:02:19;1.60;;;1.10;;
14686;SDS011;7431;49.440;11.084;2023-03-14T09:04:45;1.97;;;1.50;;
14686;SDS011;7431;49.440;11.084;2023-03-14T09:07:11;2.23;;;1.30;;
14686;SDS011;7431;49.440;11.084;2023-03-14T09:09:37;4.32;;;1.40;;
14686;SDS011;7431;49.440;11.084;2023-03-14T09:12:03;2.93;;;1.27;;
14686;SDS011;7431;49.440;11.084;2023-03-14T09:14:29;2.38;;;1.15;;
14686;SDS011;7431;49.440;11.084;2023-03-14T09:16:56;1.63;;;1.20;;
14686;SDS011;7431;49.440;11.084;2023-03-14T09:19:22;1.40;;;1.02;;
14686;SDS011;7431;49.440;11.084;2023-03-14T09:21:48;2.60;;;1.70;;
14686;SDS011;7431;49.440;11.084;2023-03-14T09:24:15;4.33;;;1.50;;
14686;SDS011;7431;49.440;11.084;2023-03-14T09:26:41;2.03;;;1.40;;
14686;SDS011;7431;49.440;11.084;2023-03-14T09:29:07;4.72;;;1.60;;
14686;SDS011;7431;49.440;11.084;2023-03-14T09:31:33;3.20;;;1.13;;
14686;SDS011;7431;49.440;11.084;2023-03-14T09:33:59;3.00;;;1.15;;
14686;SDS011;7431;49.440;11.084;2023-03-14T09:36:25;2.47;;;1.40;;
14686;SDS011;7431;49.440;11.084;2023-03-14T09:38:51;5.30;;;1.77;;
14686;SDS011;7431;49.440;11.084;2023-03-14T09:41:27;1.73;;;1.20;;
14686;SDS011;7431;49.440;11.084;2023-03-14T09:44:03;2.10;;;1.30;;
14686;SDS011;7431;49.440;11.084;2023-03-14T09:46:29;1.35;;;1.10;;
14686;SDS011;7431;49.440;11.084;2023-03-14T09:48:57;3.17;;;0.90;;
14686;SDS011;7431;49.440;11.084;2023-03-14T09:51:23;3.17;;;1.60;;
14686;SDS011;7431;49.440;11.084;2023-03-14T09:53:49;2.58;;;1.23;;
14686;SDS011;7431;49.440;11.084;2023-03-14T09:56:18;3.93;;;1.80;;
14686;SDS011;7431;49.440;11.084;2023-03-14T09:58:47;3.00;;;2.13;;
14686;SDS011;7431;49.440;11.084;2023-03-14T10:01:15;2.20;;;1.70;;
14686;SDS011;7431;49.440;11.084;2023-03-14T10:03:41;2.70;;;1.47;;
14686;SDS011;7431;49.440;11.084;2023-03-14T10:06:12;1.70;;;1.40;;
14686;SDS011;7431;49.440;11.084;2023-03-14T10:08:42;2.43;;;1.70;;
14686;SDS011;7431;49.440;11.084;2023-03-14T10:11:13;1.53;;;1.43;;
14686;SDS011;7431;49.440;11.084;2023-03-14T10:13:47;2.70;;;1.20;;
14686;SDS011;7431;49.440;11.084;2023-03-14T10:16:14;2.13;;;1.20;;
14686;SDS011;7431;49.440;11.084;2023-03-14T10:18:42;3.40;;;1.60;;
14686;SDS011;7431;49.440;11.084;2023-03-14T10:21:28;2.30;;;1.20;;
14686;SDS011;7431;49.440;11.084;2023-03-14T10:23:54;1.70;;;1.13;;
14686;SDS011;7431;49.440;11.084;2023-03-14T10:26:33;2.50;;;0.97;;
14686;SDS011;7431;49.440;11.084;2023-03-14T10:29:03;2.10;;;1.30;;
14686;SDS011;7431;49.440;11.084;2023-03-14T10:32:10;2.70;;;1.73;;
14686;SDS011;7431;49.440;11.084;2023-03-14T10:34:36;1.97;;;1.50;;
14686;SDS011;7431;49.440;11.084;2023-03-14T10:37:22;4.33;;;2.13;;
14686;SDS011;7431;49.440;11.084;2023-03-14T10:39:51;1.67;;;1.37;;
14686;SDS011;7431;49.440;11.084;2023-03-14T10:42:22;2.63;;;2.23;;
14686;SDS011;7431;49.440;11.084;2023-03-14T10:44:53;3.10;;;1.80;;
14686;SDS011;7431;49.440;11.084;2023-03-14T10:47:22;2.92;;;1.90;;
14686;SDS011;7431;49.440;11.084;2023-03-14T10:49:48;2.73;;;1.90;;
14686;SDS011;7431;49.440;11.084;2023-03-14T10:52:18;3.70;;;2.20;;
14686;SDS011;7431;49.440;11.084;2023-03-14T10:54:48;2.13;;;1.27;;
14686;SDS011;7431;49.440;11.084;2023-03-14T10:57:14;3.53;;;1.57;;
14686;SDS011;7431;49.440;11.084;2023-03-14T10:59:41;2.07;;;1.33;;
14686;SDS011;7431;49.440;11.084;2023-03-14T11:07:41;3.03;;;1.37;;
14686;SDS011;7431;49.440;11.084;2023-03-14T11:12:49;1.90;;;1.17;;
14686;SDS011;7431;49.440;11.084;2023-03-14T11:15:24;1.83;;;1.20;;
14686;SDS011;7431;49.440;11.084;2023-03-14T11:20:35;2.70;;;1.20;;
14686;SDS011;7431;49.440;11.084;2023-03-14T11:23:14;1.87;;;1.03;;
14686;SDS011;7431;49.440;11.084;2023-03-14T11:25:45;1.10;;;1.00;;
14686;SDS011;7431;49.440;11.084;2023-03-14T11:28:18;2.13;;;1.10;;
14686;SDS011;7431;49.440;11.084;2023-03-14T11:30:52;2.37;;;1.50;;
14686;SDS011;7431;49.440;11.084;2023-03-14T11:36:04;1.83;;;1.17;;
14686;SDS011;7431;49.440;11.084;2023-03-14T11:38:39;1.73;;;0.93;;
14686;SDS011;7431;49.440;11.084;2023-03-14T11:41:12;3.67;;;1.50;;
14686;SDS011;7431;49.440;11.084;2023-03-14T11:43:40;2.00;;;1.37;;
14686;SDS011;7431;49.440;11.084;2023-03-14T11:46:14;2.53;;;1.90;;
14686;SDS011;7431;49.440;11.084;2023-03-14T11:48:43;2.00;;;1.40;;
14686;SDS011;7431;49.440;11.084;2023-03-14T11:51:13;2.50;;;1.40;;
14686;SDS011;7431;49.440;11.084;2023-03-14T11:56:16;3.73;;;2.03;;
14686;SDS011;7431;49.440;11.084;2023-03-14T11:58:51;2.27;;;1.57;;
14686;SDS011;7431;49.440;11.084;2023-03-14T12:01:19;2.23;;;1.67;;
14686;SDS011;7431;49.440;11.084;2023-03-14T12:03:52;2.65;;;1.30;;
14686;SDS011;7431;49.440;11.084;2023-03-14T12:06:39;1.00;;;0.90;;
14686;SDS011;7431;49.440;11.084;2023-03-14T12:09:07;2.60;;;2.20;;
14686;SDS011;7431;49.440;11.084;2023-03-14T12:14:00;1.40;;;1.17;;
14686;SDS011;7431;49.440;11.084;2023-03-14T12:16:30;1.30;;;1.20;;
14686;SDS011;7431;49.440;11.084;2023-03-14T12:18:57;4.07;;;1.40;;
14686;SDS011;7431;49.440;11.084;2023-03-14T12:21:43;1.90;;;1.30;;
14686;SDS011;7431;49.440;11.084;2023-03-14T12:24:16;2.00;;;1.60;;
14686;SDS011;7431;49.440;11.084;2023-03-14T12:26:50;3.70;;;1.42;;
14686;SDS011;7431;49.440;11.084;2023-03-14T12:29:17;1.40;;;1.10;;
14686;SDS011;7431;49.440;11.084;2023-03-14T12:31:45;1.13;;;1.00;;
14686;SDS011;7431;49.440;11.084;2023-03-14T12:42:01;3.60;;;2.73;;
14686;SDS011;7431;49.440;11.084;2023-03-14T12:46:57;2.63;;;2.10;;
14686;SDS011;7431;49.440;11.084;2023-03-14T12:49:29;2.00;;;1.63;;
14686;SDS011;7431;49.440;11.084;2023-03-14T12:51:59;1.57;;;1.43;;
14686;SDS011;7431;49.440;11.084;2023-03-14T12:54:28;2.92;;;1.60;;
14686;SDS011;7431;49.440;11.084;2023-03-14T12:57:14;2.90;;;2.27;;
14686;SDS011;7431;49.440;11.084;2023-03-14T13:02:26;4.00;;;1.17;;
14686;SDS011;7431;49.440;11.084;2023-03-14T13:08:20;1.03;;;0.90;;
14686;SDS011;7431;49.440;11.084;2023-03-14T13:10:26;1.90;;;0.70;;
14686;SDS011;7431;49.440;11.084;2023-03-14T13:15:26;1.53;;;1.20;;
14686;SDS011;7431;49.440;11.084;2023-03-14T13:17:54;0.97;;;0.87;;
14686;SDS011;7431;49.440;11.084;2023-03-14T13:20:24;1.00;;;0.90;;
14686;SDS011;7431;49.440;11.084;2023-03-14T13:22:52;0.80;;;0.80;;
14686;SDS011;7431;49.440;11.084;2023-03-14T13:25:18;2.57;;;0.90;;
14686;SDS011;7431;49.440;11.084;2023-03-14T13:27:47;1.37;;;1.27;;
14686;SDS011;7431;49.440;11.084;2023-03-14T13:32:41;1.57;;;1.10;;
14686;SDS011;7431;49.440;11.084;2023-03-14T13:38:01;1.70;;;1.30;;
14686;SDS011;7431;49.440;11.084;2023-03-14T13:40:31;2.13;;;1.40;;
14686;SDS011;7431;49.440;11.084;2023-03-14T13:43:01;4.10;;;1.40;;
14686;SDS011;7431;49.440;11.084;2023-03-14T13:45:28;3.10;;;1.30;;
14686;SDS011;7431;49.440;11.084;2023-03-14T13:47:54;1.87;;;1.20;;
14686;SDS011;7431;49.440;11.084;2023-03-14T13:50:20;0.73;;;0.70;;
14686;SDS011;7431;49.440;11.084;2023-03-14T13:52:46;1.43;;;0.93;;
14686;SDS011;7431;49.440;11.084;2023-03-14T13:55:15;2.20;;;2.10;;
14686;SDS011;7431;49.440;11.084;2023-03-14T13:57:46;3.83;;;2.00;;
14686;SDS011;7431;49.440;11.084;2023-03-14T14:00:17;2.70;;;2.50;;
14686;SDS011;7431;49.440;11.084;2023-03-14T14:02:46;1.70;;;1.57;;
14686;SDS011;7431;49.440;11.084;2023-03-14T14:05:13;2.00;;;1.87;;
14686;SDS011;7431;49.440;11.084;2023-03-14T14:07:39;1.67;;;1.40;;
14686;SDS011;7431;49.440;11.084;2023-03-14T14:10:09;3.00;;;1.73;;
14686;SDS011;7431;49.440;11.084;2023-03-14T14:15:17;4.87;;;3.07;;
14686;SDS011;7431;49.440;11.084;2023-03-14T14:17:48;1.80;;;1.60;;
14686;SDS011;7431;49.440;11.084;2023-03-14T14:22:48;1.30;;;0.90;;
14686;SDS011;7431;49.440;11.084;2023-03-14T14:25:15;0.60;;;0.60;;
14686;SDS011;7431;49.440;11.084;2023-03-14T14:27:42;1.07;;;0.67;;
14686;SDS011;7431;49.440;11.084;2023-03-14T14:32:44;0.97;;;0.97;;
14686;SDS011;7431;49.440;11.084;2023-03-14T14:37:59;1.50;;;1.40;;
14686;SDS011;7431;49.440;11.084;2023-03-14T14:40:26;1.27;;;0.80;;
14686;SDS011;7431;49.440;11.084;2023-03-14T14:42:54;0.77;;;0.60;;
14686;SDS011;7431;49.440;11.084;2023-03-14T14:45:26;1.40;;;0.90;;
14686;SDS011;7431;49.440;11.084;2023-03-14T14:47:54;0.90;;;0.80;;
14686;SDS011;7431;49.440;11.084;2023-03-14T14:50:27;1.87;;;1.03;;
14686;SDS011;7431;49.440;11.084;2023-03-14T14:52:59;0.93;;;0.93;;
14686;SDS011;7431;49.440;11.084;2023-03-14T14:55:34;1.20;;;1.10;;
14686;SDS011;7431;49.440;11.084;2023-03-14T15:01:05;1.37;;;1.27;;
14686;SDS011;7431;49.440;11.084;2023-03-14T15:03:38;4.60;;;2.83;;
14686;SDS011;7431;49.440;11.084;2023-03-14T15:06:07;5.23;;;4.07;;
14686;SDS011;7431;49.440;11.084;2023-03-14T15:08:35;4.10;;;3.20;;
14686;SDS011;7431;49.440;11.084;2023-03-14T15:11:02;3.27;;;1.77;;
14686;SDS011;7431;49.440;11.084;2023-03-14T15:13:28;5.03;;;4.10;;
14686;SDS011;7431;49.440;11.084;2023-03-14T15:15:53;6.40;;;3.93;;
14686;SDS011;7431;49.440;11.084;2023-03-14T15:18:23;6.23;;;3.97;;
14686;SDS011;7431;49.440;11.084;2023-03-14T15:20:50;5.63;;;4.23;;
14686;SDS011;7431;49.440;11.084;2023-03-14T15:23:17;6.80;;;3.50;;
14686;SDS011;7431;49.440;11.084;2023-03-14T15:25:44;1.27;;;1.20;;
14686;SDS011;7431;49.440;11.084;2023-03-14T15:30:40;6.60;;;4.43;;
14686;SDS011;7431;49.440;11.084;2023-03-14T15:33:06;2.47;;;1.50;;
14686;SDS011;7431;49.440;11.084;2023-03-14T15:35:33;2.70;;;1.80;;
14686;SDS011;7431;49.440;11.084;2023-03-14T15:38:02;2.60;;;1.87;;
14686;SDS011;7431;49.440;11.084;2023-03-14T15:40:28;1.73;;;1.43;;
14686;SDS011;7431;49.440;11.084;2023-03-14T15:42:54;2.30;;;1.60;;
14686;SDS011;7431;49.440;11.084;2023-03-14T15:45:19;3.07;;;2.10;;
14686;SDS011;7431;49.440;11.084;2023-03-14T15:47:45;3.10;;;2.13;;
14686;SDS011;7431;49.440;11.084;2023-03-14T15:50:10;2.73;;;1.63;;
14686;SDS011;7431;49.440;11.084;2023-03-14T15:52:36;2.10;;;1.90;;
14686;SDS011;7431;49.440;11.084;2023-03-14T15:55:03;3.43;;;1.93;;
14686;SDS011;7431;49.440;11.084;2023-03-14T15:57:28;3.40;;;1.97;;
14686;SDS011;7431;49.440;11.084;2023-03-14T15:59:54;3.13;;;2.27;;
14686;SDS011;7431;49.440;11.084;2023-03-14T16:02:19;3.03;;;2.30;;